createdAt,value
2019-02-10T00:01:11.046Z,26.73
2019-02-10T00:03:41.072Z,27.32
2019-02-10T00:06:10.395Z,26.00
2019-02-10T00:08:39.814Z,25.95
2019-02-10T00:11:08.673Z,26.73
2019-02-10T00:13:38.126Z,26.42
2019-02-10T00:16:12.393Z,25.32
2019-02-10T00:18:41.793Z,25.17
2019-02-10T00:21:10.691Z,26.17
2019-02-10T00:23:40.228Z,26.57
2019-02-10T00:26:09.458Z,25.43
2019-02-10T00:28:38.650Z,25.50
2019-02-10T00:31:08.013Z,26.35
2019-02-10T00:33:37.334Z,25.68
2019-02-10T00:36:06.608Z,25.10
2019-02-10T00:38:36.019Z,25.43
2019-02-10T00:41:04.883Z,26.42
2019-02-10T00:43:34.272Z,25.70
2019-02-10T00:46:03.475Z,27.15
2019-02-10T00:48:32.828Z,28.47
2019-02-10T00:51:03.086Z,29.70
2019-02-10T00:53:32.476Z,34.08
2019-02-10T00:56:03.916Z,33.73
2019-02-10T00:58:33.228Z,30.02
2019-02-10T01:01:02.717Z,30.57
2019-02-10T01:03:31.526Z,38.17
2019-02-10T01:06:00.379Z,29.20
2019-02-10T01:08:29.536Z,30.45
2019-02-10T01:10:58.883Z,28.75
2019-02-10T01:13:27.685Z,27.10
2019-02-10T01:15:57.198Z,26.52
2019-02-10T01:18:26.369Z,27.45
2019-02-10T01:20:55.307Z,27.70
2019-02-10T01:23:24.449Z,27.40
2019-02-10T01:25:53.185Z,25.80
2019-02-10T01:28:21.951Z,26.23
2019-02-10T01:30:51.181Z,27.02
2019-02-10T01:33:19.885Z,26.60
2019-02-10T01:35:48.689Z,27.17
2019-02-10T01:38:17.595Z,27.10
2019-02-10T01:40:46.779Z,25.43
2019-02-10T01:43:16.200Z,27.62
2019-02-10T01:45:45.037Z,26.90
2019-02-10T01:48:14.396Z,26.10
2019-02-10T01:50:43.775Z,26.60
2019-02-10T01:53:13.236Z,26.93
2019-02-10T01:55:41.963Z,28.32
2019-02-10T01:58:11.404Z,25.02
2019-02-10T02:00:40.396Z,27.22
2019-02-10T02:03:09.221Z,26.80
2019-02-10T02:05:38.544Z,26.27
2019-02-10T02:08:07.934Z,25.32
2019-02-10T02:10:36.783Z,25.15
2019-02-10T02:13:06.046Z,25.37
2019-02-10T02:15:35.513Z,25.02
2019-02-10T02:18:04.765Z,26.35
2019-02-10T02:20:33.962Z,25.82
2019-02-10T02:23:02.652Z,25.20
2019-02-10T02:25:31.517Z,26.70
2019-02-10T02:28:00.743Z,25.12
2019-02-10T02:30:30.126Z,25.65
2019-02-10T02:32:59.496Z,26.07
2019-02-10T02:35:28.419Z,25.27
2019-02-10T02:37:57.666Z,24.25
2019-02-10T02:40:27.033Z,24.65
2019-02-10T02:42:55.960Z,25.50
2019-02-10T02:45:24.868Z,25.45
2019-02-10T02:47:54.093Z,25.27
2019-02-10T02:50:23.457Z,24.60
2019-02-10T02:52:52.922Z,25.05
2019-02-10T02:55:21.761Z,24.82
2019-02-10T02:57:51.110Z,24.35
2019-02-10T03:00:19.845Z,24.02
2019-02-10T03:02:49.203Z,24.27
2019-02-10T03:05:18.154Z,25.25
2019-02-10T03:07:47.031Z,23.92
2019-02-10T03:10:16.145Z,24.07
2019-02-10T03:12:45.380Z,23.55
2019-02-10T03:15:14.488Z,22.20
2019-02-10T03:17:43.351Z,22.80
2019-02-10T03:20:12.576Z,23.22
2019-02-10T03:22:42.162Z,23.90
2019-02-10T03:25:11.089Z,23.05
2019-02-10T03:27:40.380Z,21.48
2019-02-10T03:30:11.222Z,21.60
2019-02-10T03:32:40.350Z,21.40
2019-02-10T03:35:10.132Z,21.80
2019-02-10T03:37:39.620Z,21.97
2019-02-10T03:40:10.036Z,21.62
2019-02-10T03:42:38.885Z,20.97
2019-02-10T03:45:09.130Z,20.92
2019-02-10T03:47:38.005Z,21.42
2019-02-10T03:50:08.402Z,22.13
2019-02-10T03:52:37.240Z,22.10
2019-02-10T03:55:07.859Z,19.73
2019-02-10T03:57:37.188Z,20.45
2019-02-10T04:00:11.882Z,19.32
2019-02-10T04:02:41.034Z,18.62
2019-02-10T04:05:10.231Z,20.25
2019-02-10T04:07:39.548Z,20.37
2019-02-10T04:10:10.306Z,20.82
2019-02-10T04:12:39.512Z,21.93
2019-02-10T04:15:08.623Z,20.65
2019-02-10T04:17:37.379Z,19.92
2019-02-10T04:20:08.182Z,19.20
2019-02-10T04:22:37.063Z,18.32
2019-02-10T04:25:06.172Z,19.37
2019-02-10T04:27:35.593Z,17.23
2019-02-10T04:30:06.594Z,17.82
2019-02-10T04:32:35.754Z,17.37
2019-02-10T04:35:05.725Z,16.82
2019-02-10T04:37:35.080Z,16.05
2019-02-10T04:40:04.865Z,15.95
2019-02-10T04:42:34.226Z,16.23
2019-02-10T04:45:03.562Z,16.07
2019-02-10T04:47:32.424Z,16.35
2019-02-10T04:50:01.558Z,15.58
2019-02-10T04:52:30.279Z,16.05
2019-02-10T04:54:59.483Z,15.32
2019-02-10T04:57:28.320Z,14.80
2019-02-10T04:59:57.331Z,15.23
2019-02-10T05:02:26.451Z,15.75
2019-02-10T05:04:55.743Z,15.35
2019-02-10T05:07:24.901Z,15.23
2019-02-10T05:09:54.168Z,15.03
2019-02-10T05:12:23.384Z,14.50
2019-02-10T05:14:52.385Z,14.47
2019-02-10T05:17:21.438Z,14.53
2019-02-10T05:19:50.530Z,14.43
2019-02-10T05:22:19.345Z,15.53
2019-02-10T05:24:48.671Z,14.05
2019-02-10T05:27:17.523Z,15.25
2019-02-10T05:29:46.947Z,14.23
2019-02-10T05:32:15.757Z,14.47
2019-02-10T05:34:44.770Z,14.10
2019-02-10T05:37:14.185Z,14.70
2019-02-10T05:39:42.987Z,14.00
2019-02-10T05:42:11.494Z,13.20
2019-02-10T05:44:40.218Z,13.60
2019-02-10T05:47:08.870Z,14.33
2019-02-10T05:49:37.572Z,13.90
2019-02-10T05:52:06.245Z,15.50
2019-02-10T05:54:34.918Z,13.62
2019-02-10T05:57:03.640Z,14.10
2019-02-10T05:59:32.220Z,13.32
2019-02-10T06:02:07.377Z,13.93
2019-02-10T06:04:39.389Z,13.45
2019-02-10T06:07:11.394Z,13.75
2019-02-10T06:09:40.103Z,13.83
2019-02-10T06:12:08.866Z,14.40
2019-02-10T06:14:37.537Z,13.10
2019-02-10T06:17:06.033Z,13.08
2019-02-10T06:19:34.580Z,13.65
2019-02-10T06:22:03.306Z,13.65
2019-02-10T06:24:32.002Z,13.85
2019-02-10T06:27:00.652Z,12.82
2019-02-10T06:29:29.286Z,12.23
2019-02-10T06:31:58.246Z,12.37
2019-02-10T06:34:26.884Z,12.07
2019-02-10T06:36:55.530Z,12.63
2019-02-10T06:39:24.169Z,12.25
2019-02-10T06:41:52.688Z,13.00
2019-02-10T06:44:21.315Z,11.18
2019-02-10T06:46:49.893Z,12.00
2019-02-10T06:49:18.836Z,10.95
2019-02-10T06:51:47.480Z,12.98
2019-02-10T06:54:16.074Z,11.70
2019-02-10T06:56:44.667Z,12.78
2019-02-10T06:59:14.914Z,11.73
2019-02-10T07:01:45.037Z,11.60
2019-02-10T07:04:15.752Z,11.33
2019-02-10T07:06:44.405Z,11.60
2019-02-10T07:09:13.034Z,11.95
2019-02-10T07:11:41.643Z,10.72
2019-02-10T07:14:21.788Z,11.63
2019-02-10T07:16:53.593Z,10.95
2019-02-10T07:19:58.531Z,11.73
2019-02-10T07:22:45.652Z,10.32
2019-02-10T07:25:17.472Z,11.25
2019-02-10T07:28:00.953Z,10.75
2019-02-10T07:30:41.629Z,11.33
2019-02-10T07:33:16.436Z,10.43
2019-02-10T07:36:12.331Z,10.60
2019-02-10T07:38:59.382Z,9.83
2019-02-10T07:41:58.487Z,10.88
2019-02-10T07:44:41.884Z,9.45
2019-02-10T07:47:16.474Z,10.20
2019-02-10T07:49:57.640Z,9.28
2019-02-10T07:52:44.678Z,9.45
2019-02-10T07:55:37.198Z,8.68
2019-02-10T07:58:25.246Z,8.50
2019-02-10T08:01:30.617Z,8.88
2019-02-10T08:04:11.193Z,8.58
2019-02-10T08:06:45.802Z,7.80
2019-02-10T08:09:29.532Z,8.25
2019-02-10T08:12:17.721Z,7.83
2019-02-10T08:14:55.144Z,7.92
2019-02-10T08:17:38.761Z,8.73
2019-02-10T08:20:10.572Z,8.05
2019-02-10T08:22:54.181Z,8.45
2019-02-10T08:25:31.801Z,7.30
2019-02-10T08:28:12.610Z,7.90
2019-02-10T08:30:56.138Z,7.60
2019-02-10T08:33:33.741Z,7.57
2019-02-10T08:36:08.245Z,7.30
2019-02-10T08:38:40.068Z,8.35
2019-02-10T08:41:17.477Z,7.80
2019-02-10T08:44:00.840Z,8.73
2019-02-10T08:46:32.597Z,7.83
2019-02-10T08:49:26.348Z,8.25
2019-02-10T08:52:04.111Z,8.60
2019-02-10T08:54:32.756Z,7.95
2019-02-10T08:57:01.292Z,7.20
2019-02-10T08:59:29.870Z,8.28
2019-02-10T09:01:58.607Z,7.85
2019-02-10T09:04:27.816Z,8.03
2019-02-10T09:06:56.514Z,7.25
2019-02-10T09:09:25.084Z,7.80
2019-02-10T09:11:53.841Z,6.85
2019-02-10T09:14:22.573Z,7.67
2019-02-10T09:16:51.333Z,7.95
2019-02-10T09:19:20.613Z,6.87
2019-02-10T09:21:49.459Z,6.83
2019-02-10T09:24:18.172Z,6.92
2019-02-10T09:26:46.860Z,8.63
2019-02-10T09:29:15.621Z,8.00
2019-02-10T09:31:48.571Z,8.45
2019-02-10T09:34:17.418Z,8.13
2019-02-10T09:36:46.092Z,8.40
2019-02-10T09:39:14.785Z,8.50
2019-02-10T09:41:43.508Z,7.70
2019-02-10T09:44:12.196Z,8.48
2019-02-10T09:46:40.880Z,8.90
2019-02-10T09:49:09.407Z,9.18
2019-02-10T09:51:38.044Z,8.63
2019-02-10T09:54:06.842Z,9.00
2019-02-10T09:56:35.475Z,9.78
2019-02-10T09:59:04.253Z,10.58
2019-02-10T10:01:33.482Z,10.95
2019-02-10T10:04:02.160Z,11.85
2019-02-10T10:06:30.956Z,11.00
2019-02-10T10:09:00.181Z,10.43
2019-02-10T10:11:29.404Z,8.93
2019-02-10T10:13:58.155Z,8.88
2019-02-10T10:16:26.899Z,8.25
2019-02-10T10:18:55.505Z,9.08
2019-02-10T10:21:24.272Z,9.25
2019-02-10T10:23:53.118Z,9.23
2019-02-10T10:26:21.817Z,8.68
2019-02-10T10:28:50.348Z,8.30
2019-02-10T10:31:19.136Z,8.00
2019-02-10T10:33:47.971Z,8.43
2019-02-10T10:36:16.766Z,8.60
2019-02-10T10:38:45.581Z,8.15
2019-02-10T10:41:14.269Z,8.78
2019-02-10T10:43:42.982Z,7.67
2019-02-10T10:46:11.729Z,9.08
2019-02-10T10:48:40.432Z,8.13
2019-02-10T10:51:08.986Z,7.62
2019-02-10T10:53:37.957Z,8.15
2019-02-10T10:56:06.937Z,8.10
2019-02-10T10:58:35.574Z,8.13
2019-02-10T11:01:04.263Z,9.03
2019-02-10T11:03:32.989Z,9.45
2019-02-10T11:06:01.708Z,8.28
2019-02-10T11:08:30.393Z,8.03
2019-02-10T11:10:59.000Z,8.18
2019-02-10T11:13:27.681Z,8.58
2019-02-10T11:15:59.736Z,8.48
2019-02-10T11:18:28.461Z,8.40
2019-02-10T11:20:57.512Z,7.78
2019-02-10T11:23:26.327Z,8.03
2019-02-10T11:25:55.045Z,8.10
2019-02-10T11:28:27.347Z,7.75
2019-02-10T11:30:56.151Z,8.68
2019-02-10T11:33:24.658Z,7.30
2019-02-10T11:35:53.376Z,7.78
2019-02-10T11:38:21.981Z,7.40
2019-02-10T11:40:50.570Z,7.65
2019-02-10T11:43:19.270Z,7.83
2019-02-10T11:45:48.018Z,7.53
2019-02-10T11:48:16.671Z,7.60
2019-02-10T11:50:45.340Z,7.47
2019-02-10T11:53:13.922Z,8.03
2019-02-10T11:55:42.558Z,7.92
2019-02-10T11:58:11.181Z,6.97
2019-02-10T12:00:39.932Z,7.00
2019-02-10T12:03:08.612Z,6.92
2019-02-10T12:05:37.365Z,7.30
2019-02-10T12:08:06.061Z,6.83
2019-02-10T12:10:34.819Z,7.03
2019-02-10T12:13:03.459Z,7.92
2019-02-10T12:15:32.248Z,6.85
2019-02-10T12:18:00.936Z,6.65
2019-02-10T12:20:29.658Z,7.30
2019-02-10T12:22:58.254Z,6.35
2019-02-10T12:25:26.873Z,7.40
2019-02-10T12:27:55.600Z,7.05
2019-02-10T12:30:24.424Z,7.55
2019-02-10T12:32:53.140Z,7.75
2019-02-10T12:35:21.848Z,7.37
2019-02-10T12:37:50.635Z,6.87
2019-02-10T12:40:19.425Z,7.78
2019-02-10T12:42:48.154Z,8.48
2019-02-10T12:45:16.825Z,9.35
2019-02-10T12:47:45.518Z,8.75
2019-02-10T12:50:14.778Z,7.83
2019-02-10T12:52:43.500Z,8.23
2019-02-10T12:55:12.919Z,7.95
2019-02-10T12:57:41.793Z,7.60
2019-02-10T13:00:18.452Z,7.25
2019-02-10T13:02:47.040Z,7.15
2019-02-10T13:05:15.727Z,7.62
2019-02-10T13:07:44.611Z,8.30
2019-02-10T13:10:15.797Z,8.10
2019-02-10T13:12:44.726Z,7.70
2019-02-10T13:15:13.839Z,8.55
2019-02-10T13:17:42.337Z,8.60
2019-02-10T13:20:12.145Z,8.25
2019-02-10T13:22:40.853Z,8.33
2019-02-10T13:25:11.890Z,8.25
2019-02-10T13:27:41.160Z,8.98
2019-02-10T13:30:17.508Z,8.95
2019-02-10T13:32:46.200Z,7.92
2019-02-10T13:35:15.032Z,8.60
2019-02-10T13:37:43.681Z,8.95
2019-02-10T13:40:22.911Z,9.30
2019-02-10T13:42:51.732Z,8.45
2019-02-10T13:45:20.572Z,9.20
2019-02-10T13:47:49.251Z,9.08
2019-02-10T13:50:18.939Z,8.43
2019-02-10T13:52:47.661Z,8.08
2019-02-10T13:55:16.980Z,8.28
2019-02-10T13:57:45.626Z,8.93
2019-02-10T14:00:19.233Z,8.58
2019-02-10T14:02:47.878Z,8.83
2019-02-10T14:05:16.706Z,9.18
2019-02-10T14:07:45.797Z,8.85
2019-02-10T14:10:15.823Z,9.00
2019-02-10T14:12:44.758Z,9.65
2019-02-10T14:15:15.885Z,9.50
2019-02-10T14:17:44.626Z,8.80
2019-02-10T14:20:18.276Z,9.78
2019-02-10T14:22:47.066Z,9.63
2019-02-10T14:25:15.707Z,9.65
2019-02-10T14:27:44.388Z,10.60
2019-02-10T14:30:20.905Z,9.65
2019-02-10T14:32:49.664Z,9.30
2019-02-10T14:35:18.419Z,10.10
2019-02-10T14:37:46.975Z,8.35
2019-02-10T14:40:15.745Z,8.80
2019-02-10T14:42:44.566Z,9.18
2019-02-10T14:45:15.271Z,8.50
2019-02-10T14:47:44.067Z,9.10
2019-02-10T14:50:17.516Z,9.10
2019-02-10T14:52:46.285Z,10.18
2019-02-10T14:55:14.935Z,10.63
2019-02-10T14:57:43.470Z,9.43
2019-02-10T15:00:14.195Z,11.03
2019-02-10T15:02:42.950Z,12.03
2019-02-10T15:05:11.674Z,9.50
2019-02-10T15:07:40.332Z,9.28
2019-02-10T15:10:14.556Z,9.00
2019-02-10T15:12:43.069Z,8.65
2019-02-10T15:15:11.862Z,8.73
2019-02-10T15:17:40.380Z,9.53
2019-02-10T15:20:10.523Z,13.20
2019-02-10T15:22:39.185Z,13.60
2019-02-10T15:25:12.695Z,13.25
2019-02-10T15:27:41.374Z,14.23
2019-02-10T15:30:12.388Z,12.53
2019-02-10T15:32:41.154Z,15.05
2019-02-10T15:35:09.908Z,14.07
2019-02-10T15:37:38.455Z,14.20
2019-02-10T15:40:09.159Z,16.12
2019-02-10T15:42:37.788Z,15.83
2019-02-10T15:45:09.632Z,17.10
2019-02-10T15:47:38.417Z,15.03
2019-02-10T15:50:12.193Z,15.83
2019-02-10T15:52:40.796Z,14.40
2019-02-10T15:55:11.607Z,13.45
2019-02-10T15:57:40.287Z,13.88
2019-02-10T16:00:18.148Z,14.28
2019-02-10T16:02:46.856Z,14.40
2019-02-10T16:05:15.640Z,14.47
2019-02-10T16:07:44.351Z,16.00
2019-02-10T16:10:13.093Z,14.85
2019-02-10T16:12:41.776Z,12.95
2019-02-10T16:15:12.096Z,13.48
2019-02-10T16:17:40.781Z,14.78
2019-02-10T16:20:14.340Z,13.98
2019-02-10T16:22:43.019Z,13.75
2019-02-10T16:25:11.687Z,14.65
2019-02-10T16:27:40.378Z,15.00
2019-02-10T16:30:11.939Z,14.78
2019-02-10T16:32:40.619Z,15.88
2019-02-10T16:35:09.554Z,16.48
2019-02-10T16:37:38.656Z,15.53
2019-02-10T16:40:19.408Z,15.00
2019-02-10T16:42:48.102Z,15.35
2019-02-10T16:45:16.886Z,15.30
2019-02-10T16:47:45.581Z,15.65
2019-02-10T16:50:15.609Z,16.97
2019-02-10T16:52:44.221Z,15.90
2019-02-10T16:55:15.611Z,15.43
2019-02-10T16:57:44.276Z,14.58
2019-02-10T17:00:17.200Z,13.90
2019-02-10T17:02:45.855Z,13.88
2019-02-10T17:05:14.643Z,13.28
2019-02-10T17:07:43.280Z,11.55
2019-02-10T17:10:14.711Z,10.75
2019-02-10T17:12:43.370Z,11.93
2019-02-10T17:15:12.911Z,10.88
2019-02-10T17:17:41.630Z,11.48
2019-02-10T17:20:13.842Z,12.68
2019-02-10T17:22:42.462Z,13.43
2019-02-10T17:25:26.087Z,12.53
2019-02-10T17:27:54.771Z,15.20
2019-02-10T17:30:23.431Z,15.23
2019-02-10T17:32:52.220Z,14.73
2019-02-10T17:35:20.894Z,16.25
2019-02-10T17:37:49.560Z,15.53
2019-02-10T17:40:42.704Z,15.30
2019-02-10T17:43:11.257Z,15.55
2019-02-10T17:45:39.807Z,15.40
2019-02-10T17:48:08.580Z,16.50
2019-02-10T17:50:37.415Z,17.32
2019-02-10T17:53:06.168Z,17.80
2019-02-10T17:55:34.763Z,18.55
2019-02-10T17:58:03.441Z,17.90
2019-02-10T18:00:34.072Z,18.23
2019-02-10T18:03:02.734Z,18.42
2019-02-10T18:05:31.529Z,19.12
2019-02-10T18:08:00.284Z,18.62
2019-02-10T18:10:29.013Z,18.37
2019-02-10T18:12:57.853Z,19.20
2019-02-10T18:15:46.783Z,19.05
2019-02-10T18:18:29.370Z,19.25
2019-02-10T18:20:59.679Z,19.52
2019-02-10T18:23:32.723Z,19.73
2019-02-10T18:26:05.726Z,20.20
2019-02-10T18:28:38.926Z,20.02
2019-02-10T18:31:15.263Z,19.63
2019-02-10T18:33:48.690Z,18.90
2019-02-10T18:36:37.294Z,20.12
2019-02-10T18:39:08.190Z,18.00
2019-02-10T18:41:47.641Z,19.70
2019-02-10T18:44:30.207Z,17.65
2019-02-10T18:47:09.547Z,19.25
2019-02-10T18:49:42.790Z,20.17
2019-02-10T18:52:13.073Z,20.73
2019-02-10T18:54:49.452Z,19.65
2019-02-10T18:57:31.829Z,19.23
2019-02-10T19:00:18.606Z,21.05
2019-02-10T19:02:57.637Z,21.77
2019-02-10T19:05:44.263Z,20.10
2019-02-10T19:08:14.799Z,21.70
2019-02-10T19:10:44.980Z,20.85
2019-02-10T19:13:15.239Z,22.95
2019-02-10T19:15:54.063Z,21.62
2019-02-10T19:18:27.180Z,20.75
2019-02-10T19:21:15.623Z,20.90
2019-02-10T19:23:57.937Z,22.85
2019-02-10T19:26:37.432Z,23.00
2019-02-10T19:29:10.754Z,23.32
2019-02-10T19:31:47.118Z,22.60
2019-02-10T19:34:20.517Z,21.65
2019-02-10T19:36:56.973Z,21.48
2019-02-10T19:39:33.287Z,22.62
2019-02-10T19:42:10.046Z,22.80
2019-02-10T19:44:57.263Z,22.87
2019-02-10T19:47:31.166Z,23.62
2019-02-10T19:50:07.598Z,20.68
2019-02-10T19:52:54.626Z,21.17
2019-02-10T19:55:41.790Z,19.17
2019-02-10T19:58:28.831Z,19.70
2019-02-10T20:01:15.889Z,20.35
2019-02-10T20:03:46.730Z,18.90
2019-02-10T20:06:17.133Z,19.98
2019-02-10T20:08:54.142Z,20.35
2019-02-10T20:11:43.190Z,19.62
2019-02-10T20:14:16.916Z,18.95
2019-02-10T20:17:02.560Z,18.85
2019-02-10T20:19:39.345Z,19.87
2019-02-10T20:22:09.744Z,19.17
2019-02-10T20:24:43.538Z,19.55
2019-02-10T20:27:20.524Z,19.45
2019-02-10T20:29:51.314Z,19.23
2019-02-10T20:32:22.267Z,19.77
2019-02-10T20:34:53.043Z,19.12
2019-02-10T20:37:27.296Z,19.55
2019-02-10T20:40:00.575Z,19.37
2019-02-10T20:42:31.454Z,18.97
2019-02-10T20:45:14.380Z,18.70
2019-02-10T20:47:51.173Z,18.23
2019-02-10T20:50:33.592Z,18.67
2019-02-10T20:53:04.418Z,19.30
2019-02-10T20:55:34.788Z,19.77
2019-02-10T20:58:08.090Z,19.73
2019-02-10T21:00:41.767Z,20.52
2019-02-10T21:03:15.747Z,20.08
2019-02-10T21:05:46.581Z,21.60
2019-02-10T21:08:29.926Z,20.50
2019-02-10T21:11:00.345Z,20.08
2019-02-10T21:13:34.074Z,20.82
2019-02-10T21:16:04.506Z,20.97
2019-02-10T21:18:38.141Z,20.25
2019-02-10T21:21:09.055Z,20.77
2019-02-10T21:23:49.074Z,20.52
2019-02-10T21:26:35.830Z,21.87
2019-02-10T21:29:22.326Z,21.20
2019-02-10T21:31:55.780Z,21.37
2019-02-10T21:34:29.398Z,21.15
2019-02-10T21:37:02.971Z,20.92
2019-02-10T21:39:50.433Z,21.55
2019-02-10T21:42:39.097Z,20.25
2019-02-10T21:45:18.756Z,21.20
2019-02-10T21:47:50.524Z,21.80
2019-02-10T21:50:19.330Z,20.62
2019-02-10T21:52:48.682Z,20.95
2019-02-10T21:55:17.541Z,21.35
2019-02-10T21:57:46.363Z,22.07
2019-02-10T22:00:15.254Z,20.80
2019-02-10T22:02:44.510Z,21.00
2019-02-10T22:05:13.458Z,20.65
2019-02-10T22:07:42.969Z,19.50
2019-02-10T22:10:12.719Z,21.52
2019-02-10T22:12:42.060Z,21.55
2019-02-10T22:15:11.731Z,20.30
2019-02-10T22:17:40.499Z,21.07
2019-02-10T22:20:12.688Z,20.68
2019-02-10T22:22:42.049Z,18.55
2019-02-10T22:25:12.235Z,19.10
2019-02-10T22:27:41.036Z,19.30
2019-02-10T22:30:13.179Z,19.07
2019-02-10T22:32:42.157Z,18.62
2019-02-10T22:35:10.887Z,19.27
2019-02-10T22:37:40.096Z,17.85
2019-02-10T22:40:11.743Z,19.40
2019-02-10T22:42:45.712Z,19.45
2019-02-10T22:45:14.425Z,19.10
2019-02-10T22:47:43.472Z,19.30
2019-02-10T22:50:14.051Z,19.82
2019-02-10T22:52:42.802Z,19.62
2019-02-10T22:55:11.651Z,19.20
2019-02-10T22:57:41.229Z,20.00
2019-02-10T23:00:26.667Z,19.87
2019-02-10T23:02:55.947Z,19.60
2019-02-10T23:05:25.074Z,20.20
2019-02-10T23:07:53.882Z,20.57
2019-02-10T23:10:23.112Z,20.88
2019-02-10T23:12:53.724Z,20.75
2019-02-10T23:15:22.257Z,21.17
2019-02-10T23:17:52.839Z,20.02
2019-02-10T23:20:21.763Z,18.98
2019-02-10T23:22:51.570Z,20.45
2019-02-10T23:25:20.586Z,20.20
2019-02-10T23:27:49.369Z,20.08
2019-02-10T23:30:18.132Z,20.15
2019-02-10T23:32:47.424Z,20.50
2019-02-10T23:35:16.862Z,20.20
2019-02-10T23:37:45.746Z,20.00
2019-02-10T23:40:14.557Z,21.05
2019-02-10T23:42:43.785Z,19.92
2019-02-10T23:45:12.669Z,20.92
2019-02-10T23:47:41.854Z,19.75
2019-02-10T23:50:11.051Z,19.35
2019-02-10T23:52:39.756Z,20.57
2019-02-10T23:55:08.591Z,21.68
2019-02-10T23:57:37.371Z,21.77
